sensor_id;sensor_type;location;lat;lon;timestamp;P1;durP1;ratioP1;P2;durP2;ratioP2
20449;SDS011;10384;51.940;8.432;2022-10-16T00:00:56;5.73;;;2.80;;
20449;SDS011;10384;51.940;8.432;2022-10-16T00:03:22;4.10;;;2.97;;
20449;SDS011;10384;51.940;8.432;2022-10-16T00:05:48;4.13;;;2.60;;
20449;SDS011;10384;51.940;8.432;2022-10-16T00:08:14;6.40;;;3.20;;
20449;SDS011;10384;51.940;8.432;2022-10-16T00:10:40;7.00;;;3.00;;
20449;SDS011;10384;51.940;8.432;2022-10-16T00:13:06;5.10;;;2.70;;
20449;SDS011;10384;51.940;8.432;2022-10-16T00:15:33;6.43;;;3.00;;
20449;SDS011;10384;51.940;8.432;2022-10-16T00:18:01;9.43;;;3.27;;
20449;SDS011;10384;51.940;8.432;2022-10-16T00:20:27;5.00;;;2.73;;
20449;SDS011;10384;51.940;8.432;2022-10-16T00:22:53;4.07;;;2.90;;
20449;SDS011;10384;51.940;8.432;2022-10-16T00:25:19;4.67;;;2.70;;
20449;SDS011;10384;51.940;8.432;2022-10-16T00:27:45;5.63;;;3.07;;
20449;SDS011;10384;51.940;8.432;2022-10-16T00:30:11;5.63;;;2.60;;
20449;SDS011;10384;51.940;8.432;2022-10-16T00:32:37;5.73;;;3.10;;
20449;SDS011;10384;51.940;8.432;2022-10-16T00:35:03;5.20;;;2.80;;
20449;SDS011;10384;51.940;8.432;2022-10-16T00:37:29;6.73;;;3.10;;
20449;SDS011;10384;51.940;8.432;2022-10-16T00:39:55;5.70;;;2.73;;
20449;SDS011;10384;51.940;8.432;2022-10-16T00:42:21;5.67;;;3.20;;
20449;SDS011;10384;51.940;8.432;2022-10-16T00:44:49;6.73;;;3.20;;
20449;SDS011;10384;51.940;8.432;2022-10-16T00:47:19;8.40;;;3.10;;
20449;SDS011;10384;51.940;8.432;2022-10-16T00:49:45;6.23;;;3.17;;
20449;SDS011;10384;51.940;8.432;2022-10-16T00:52:12;6.67;;;3.00;;
20449;SDS011;10384;51.940;8.432;2022-10-16T00:54:39;5.20;;;2.83;;
20449;SDS011;10384;51.940;8.432;2022-10-16T00:57:05;4.47;;;2.60;;
20449;SDS011;10384;51.940;8.432;2022-10-16T00:59:35;7.97;;;3.40;;
20449;SDS011;10384;51.940;8.432;2022-10-16T01:02:02;5.00;;;2.87;;
20449;SDS011;10384;51.940;8.432;2022-10-16T01:04:30;8.53;;;3.00;;
20449;SDS011;10384;51.940;8.432;2022-10-16T01:07:10;6.30;;;2.93;;
20449;SDS011;10384;51.940;8.432;2022-10-16T01:09:51;7.37;;;2.60;;
20449;SDS011;10384;51.940;8.432;2022-10-16T01:12:36;4.60;;;2.80;;
20449;SDS011;10384;51.940;8.432;2022-10-16T01:17:47;4.10;;;2.83;;
20449;SDS011;10384;51.940;8.432;2022-10-16T01:20:27;5.53;;;2.80;;
20449;SDS011;10384;51.940;8.432;2022-10-16T01:28:10;6.97;;;3.00;;
20449;SDS011;10384;51.940;8.432;2022-10-16T01:30:37;6.37;;;3.23;;
20449;SDS011;10384;51.940;8.432;2022-10-16T01:33:07;4.67;;;2.73;;
20449;SDS011;10384;51.940;8.432;2022-10-16T01:35:35;4.70;;;2.53;;
20449;SDS011;10384;51.940;8.432;2022-10-16T01:38:10;5.53;;;2.90;;
20449;SDS011;10384;51.940;8.432;2022-10-16T01:40:39;6.63;;;3.07;;
20449;SDS011;10384;51.940;8.432;2022-10-16T01:43:11;6.33;;;3.00;;
20449;SDS011;10384;51.940;8.432;2022-10-16T01:45:38;5.67;;;2.60;;
20449;SDS011;10384;51.940;8.432;2022-10-16T01:48:06;5.17;;;2.90;;
20449;SDS011;10384;51.940;8.432;2022-10-16T01:50:35;6.30;;;3.13;;
20449;SDS011;10384;51.940;8.432;2022-10-16T01:53:03;5.90;;;2.80;;
20449;SDS011;10384;51.940;8.432;2022-10-16T01:55:34;5.57;;;3.00;;
20449;SDS011;10384;51.940;8.432;2022-10-16T01:58:01;4.63;;;2.67;;
20449;SDS011;10384;51.940;8.432;2022-10-16T02:00:28;6.07;;;3.17;;
20449;SDS011;10384;51.940;8.432;2022-10-16T02:02:55;7.07;;;3.17;;
20449;SDS011;10384;51.940;8.432;2022-10-16T02:05:30;5.90;;;3.10;;
20449;SDS011;10384;51.940;8.432;2022-10-16T02:07:56;6.70;;;2.80;;
20449;SDS011;10384;51.940;8.432;2022-10-16T02:10:23;6.70;;;3.10;;
20449;SDS011;10384;51.940;8.432;2022-10-16T02:13:04;9.07;;;3.27;;
20449;SDS011;10384;51.940;8.432;2022-10-16T02:15:31;6.83;;;3.00;;
20449;SDS011;10384;51.940;8.432;2022-10-16T02:17:57;7.90;;;3.00;;
20449;SDS011;10384;51.940;8.432;2022-10-16T02:20:25;5.90;;;2.93;;
20449;SDS011;10384;51.940;8.432;2022-10-16T02:22:52;5.77;;;2.83;;
20449;SDS011;10384;51.940;8.432;2022-10-16T02:27:55;5.73;;;2.73;;
20449;SDS011;10384;51.940;8.432;2022-10-16T02:30:25;5.97;;;2.80;;
20449;SDS011;10384;51.940;8.432;2022-10-16T02:32:53;4.93;;;2.90;;
20449;SDS011;10384;51.940;8.432;2022-10-16T02:35:20;10.17;;;3.53;;
20449;SDS011;10384;51.940;8.432;2022-10-16T02:37:46;5.90;;;2.73;;
20449;SDS011;10384;51.940;8.432;2022-10-16T02:40:13;6.37;;;2.60;;
20449;SDS011;10384;51.940;8.432;2022-10-16T02:42:39;6.57;;;3.20;;
20449;SDS011;10384;51.940;8.432;2022-10-16T02:45:06;5.40;;;2.77;;
20449;SDS011;10384;51.940;8.432;2022-10-16T02:47:33;5.77;;;2.57;;
20449;SDS011;10384;51.940;8.432;2022-10-16T02:49:59;6.80;;;2.57;;
20449;SDS011;10384;51.940;8.432;2022-10-16T02:52:25;6.67;;;3.50;;
20449;SDS011;10384;51.940;8.432;2022-10-16T02:54:51;8.23;;;3.30;;
20449;SDS011;10384;51.940;8.432;2022-10-16T02:57:17;5.77;;;3.20;;
20449;SDS011;10384;51.940;8.432;2022-10-16T02:59:43;6.77;;;3.20;;
20449;SDS011;10384;51.940;8.432;2022-10-16T03:02:09;7.47;;;3.37;;
20449;SDS011;10384;51.940;8.432;2022-10-16T03:04:35;7.83;;;2.97;;
20449;SDS011;10384;51.940;8.432;2022-10-16T03:07:01;6.20;;;3.13;;
20449;SDS011;10384;51.940;8.432;2022-10-16T03:09:27;6.17;;;3.30;;
20449;SDS011;10384;51.940;8.432;2022-10-16T03:11:53;6.77;;;3.00;;
20449;SDS011;10384;51.940;8.432;2022-10-16T03:14:19;5.53;;;2.90;;
20449;SDS011;10384;51.940;8.432;2022-10-16T03:16:45;3.80;;;2.80;;
20449;SDS011;10384;51.940;8.432;2022-10-16T03:19:11;4.70;;;3.07;;
20449;SDS011;10384;51.940;8.432;2022-10-16T03:21:37;4.27;;;2.87;;
20449;SDS011;10384;51.940;8.432;2022-10-16T03:24:03;7.70;;;2.77;;
20449;SDS011;10384;51.940;8.432;2022-10-16T03:26:29;8.13;;;2.80;;
20449;SDS011;10384;51.940;8.432;2022-10-16T03:28:55;13.53;;;3.10;;
20449;SDS011;10384;51.940;8.432;2022-10-16T03:31:21;5.13;;;2.90;;
20449;SDS011;10384;51.940;8.432;2022-10-16T03:33:47;7.53;;;2.83;;
20449;SDS011;10384;51.940;8.432;2022-10-16T03:36:13;5.70;;;2.90;;
20449;SDS011;10384;51.940;8.432;2022-10-16T03:38:39;4.20;;;2.70;;
20449;SDS011;10384;51.940;8.432;2022-10-16T03:41:05;3.70;;;2.70;;
20449;SDS011;10384;51.940;8.432;2022-10-16T03:43:32;4.87;;;2.80;;
20449;SDS011;10384;51.940;8.432;2022-10-16T03:45:58;4.67;;;2.60;;
20449;SDS011;10384;51.940;8.432;2022-10-16T03:48:24;6.33;;;2.80;;
20449;SDS011;10384;51.940;8.432;2022-10-16T03:50:50;7.27;;;2.93;;
20449;SDS011;10384;51.940;8.432;2022-10-16T03:53:16;6.63;;;2.83;;
20449;SDS011;10384;51.940;8.432;2022-10-16T03:55:43;4.73;;;2.50;;
20449;SDS011;10384;51.940;8.432;2022-10-16T03:58:09;8.87;;;2.60;;
20449;SDS011;10384;51.940;8.432;2022-10-16T04:00:35;3.50;;;2.80;;
20449;SDS011;10384;51.940;8.432;2022-10-16T04:03:01;3.27;;;2.50;;
20449;SDS011;10384;51.940;8.432;2022-10-16T04:05:27;4.60;;;2.63;;
20449;SDS011;10384;51.940;8.432;2022-10-16T04:07:53;5.53;;;2.70;;
20449;SDS011;10384;51.940;8.432;2022-10-16T04:10:20;4.13;;;2.70;;
20449;SDS011;10384;51.940;8.432;2022-10-16T04:12:45;3.87;;;2.60;;
20449;SDS011;10384;51.940;8.432;2022-10-16T04:15:11;4.00;;;2.30;;
20449;SDS011;10384;51.940;8.432;2022-10-16T04:17:37;3.27;;;2.17;;
20449;SDS011;10384;51.940;8.432;2022-10-16T04:20:03;4.33;;;2.40;;
20449;SDS011;10384;51.940;8.432;2022-10-16T04:22:30;4.67;;;2.40;;
20449;SDS011;10384;51.940;8.432;2022-10-16T04:24:55;3.77;;;2.20;;
20449;SDS011;10384;51.940;8.432;2022-10-16T04:27:21;5.00;;;2.10;;
20449;SDS011;10384;51.940;8.432;2022-10-16T04:29:47;3.00;;;2.37;;
20449;SDS011;10384;51.940;8.432;2022-10-16T04:32:13;4.40;;;2.30;;
20449;SDS011;10384;51.940;8.432;2022-10-16T04:34:39;5.83;;;2.10;;
20449;SDS011;10384;51.940;8.432;2022-10-16T04:37:06;2.37;;;2.13;;
20449;SDS011;10384;51.940;8.432;2022-10-16T04:39:32;3.00;;;2.27;;
20449;SDS011;10384;51.940;8.432;2022-10-16T04:41:58;3.27;;;2.10;;
20449;SDS011;10384;51.940;8.432;2022-10-16T04:44:23;2.63;;;2.00;;
20449;SDS011;10384;51.940;8.432;2022-10-16T04:46:50;4.63;;;2.17;;
20449;SDS011;10384;51.940;8.432;2022-10-16T04:49:16;4.63;;;1.97;;
20449;SDS011;10384;51.940;8.432;2022-10-16T04:51:42;3.57;;;2.00;;
20449;SDS011;10384;51.940;8.432;2022-10-16T04:54:08;5.00;;;2.20;;
20449;SDS011;10384;51.940;8.432;2022-10-16T04:56:34;3.53;;;1.90;;
20449;SDS011;10384;51.940;8.432;2022-10-16T04:59:07;5.90;;;2.00;;
20449;SDS011;10384;51.940;8.432;2022-10-16T05:01:33;3.50;;;1.80;;
20449;SDS011;10384;51.940;8.432;2022-10-16T05:03:59;4.00;;;1.93;;
20449;SDS011;10384;51.940;8.432;2022-10-16T05:06:25;3.07;;;1.90;;
20449;SDS011;10384;51.940;8.432;2022-10-16T05:08:51;2.93;;;1.90;;
20449;SDS011;10384;51.940;8.432;2022-10-16T05:11:17;2.30;;;1.77;;
20449;SDS011;10384;51.940;8.432;2022-10-16T05:13:43;2.23;;;1.60;;
20449;SDS011;10384;51.940;8.432;2022-10-16T05:16:09;6.77;;;1.70;;
20449;SDS011;10384;51.940;8.432;2022-10-16T05:18:35;3.03;;;1.60;;
20449;SDS011;10384;51.940;8.432;2022-10-16T05:21:01;2.97;;;1.90;;
20449;SDS011;10384;51.940;8.432;2022-10-16T05:23:27;3.87;;;1.80;;
20449;SDS011;10384;51.940;8.432;2022-10-16T05:25:54;2.73;;;1.90;;
20449;SDS011;10384;51.940;8.432;2022-10-16T05:28:20;3.50;;;2.67;;
20449;SDS011;10384;51.940;8.432;2022-10-16T05:30:46;2.50;;;1.90;;
20449;SDS011;10384;51.940;8.432;2022-10-16T05:33:12;3.40;;;2.03;;
20449;SDS011;10384;51.940;8.432;2022-10-16T05:35:38;2.47;;;1.77;;
20449;SDS011;10384;51.940;8.432;2022-10-16T05:38:04;4.23;;;1.80;;
20449;SDS011;10384;51.940;8.432;2022-10-16T05:40:30;1.80;;;1.50;;
20449;SDS011;10384;51.940;8.432;2022-10-16T05:42:56;2.37;;;1.63;;
20449;SDS011;10384;51.940;8.432;2022-10-16T05:45:22;1.87;;;1.67;;
20449;SDS011;10384;51.940;8.432;2022-10-16T05:47:48;1.77;;;1.60;;
20449;SDS011;10384;51.940;8.432;2022-10-16T05:50:14;4.03;;;1.90;;
20449;SDS011;10384;51.940;8.432;2022-10-16T05:52:40;2.10;;;1.60;;
20449;SDS011;10384;51.940;8.432;2022-10-16T05:55:06;3.67;;;1.97;;
20449;SDS011;10384;51.940;8.432;2022-10-16T05:57:32;4.60;;;1.87;;
20449;SDS011;10384;51.940;8.432;2022-10-16T05:59:58;3.53;;;1.70;;
20449;SDS011;10384;51.940;8.432;2022-10-16T06:02:24;1.90;;;1.60;;
20449;SDS011;10384;51.940;8.432;2022-10-16T06:04:51;2.40;;;1.97;;
20449;SDS011;10384;51.940;8.432;2022-10-16T06:07:19;2.93;;;1.67;;
20449;SDS011;10384;51.940;8.432;2022-10-16T06:09:47;2.87;;;1.80;;
20449;SDS011;10384;51.940;8.432;2022-10-16T06:12:14;2.23;;;1.60;;
20449;SDS011;10384;51.940;8.432;2022-10-16T06:14:40;2.53;;;1.73;;
20449;SDS011;10384;51.940;8.432;2022-10-16T06:17:06;4.50;;;1.80;;
20449;SDS011;10384;51.940;8.432;2022-10-16T06:19:32;2.67;;;1.70;;
20449;SDS011;10384;51.940;8.432;2022-10-16T06:21:58;2.10;;;1.70;;
20449;SDS011;10384;51.940;8.432;2022-10-16T06:24:24;4.77;;;1.70;;
20449;SDS011;10384;51.940;8.432;2022-10-16T06:26:50;3.77;;;1.60;;
20449;SDS011;10384;51.940;8.432;2022-10-16T06:29:16;1.80;;;1.47;;
20449;SDS011;10384;51.940;8.432;2022-10-16T06:31:42;2.07;;;1.50;;
20449;SDS011;10384;51.940;8.432;2022-10-16T06:34:11;4.30;;;1.67;;
20449;SDS011;10384;51.940;8.432;2022-10-16T06:36:37;1.60;;;1.50;;
20449;SDS011;10384;51.940;8.432;2022-10-16T06:39:03;3.20;;;1.73;;
20449;SDS011;10384;51.940;8.432;2022-10-16T06:41:30;2.13;;;1.50;;
20449;SDS011;10384;51.940;8.432;2022-10-16T06:43:56;4.20;;;1.50;;
20449;SDS011;10384;51.940;8.432;2022-10-16T06:46:22;3.40;;;1.70;;
20449;SDS011;10384;51.940;8.432;2022-10-16T06:48:49;2.53;;;1.40;;
20449;SDS011;10384;51.940;8.432;2022-10-16T06:51:18;2.27;;;1.60;;
20449;SDS011;10384;51.940;8.432;2022-10-16T06:53:45;1.63;;;1.40;;
20449;SDS011;10384;51.940;8.432;2022-10-16T06:56:18;2.73;;;1.60;;
20449;SDS011;10384;51.940;8.432;2022-10-16T06:58:44;2.27;;;1.60;;
20449;SDS011;10384;51.940;8.432;2022-10-16T07:01:10;2.40;;;1.60;;
20449;SDS011;10384;51.940;8.432;2022-10-16T07:03:37;2.47;;;1.70;;
20449;SDS011;10384;51.940;8.432;2022-10-16T07:06:04;2.60;;;1.60;;
20449;SDS011;10384;51.940;8.432;2022-10-16T07:08:30;2.37;;;1.50;;
20449;SDS011;10384;51.940;8.432;2022-10-16T07:10:58;2.43;;;2.00;;
20449;SDS011;10384;51.940;8.432;2022-10-16T07:13:24;2.70;;;1.80;;
20449;SDS011;10384;51.940;8.432;2022-10-16T07:15:50;2.03;;;1.70;;
20449;SDS011;10384;51.940;8.432;2022-10-16T07:18:16;1.93;;;1.70;;
20449;SDS011;10384;51.940;8.432;2022-10-16T07:20:42;2.30;;;1.57;;
20449;SDS011;10384;51.940;8.432;2022-10-16T07:23:08;3.17;;;1.60;;
20449;SDS011;10384;51.940;8.432;2022-10-16T07:25:34;4.10;;;1.50;;
20449;SDS011;10384;51.940;8.432;2022-10-16T07:28:00;1.83;;;1.37;;
20449;SDS011;10384;51.940;8.432;2022-10-16T07:30:26;3.10;;;1.40;;
20449;SDS011;10384;51.940;8.432;2022-10-16T07:32:52;2.13;;;1.50;;
20449;SDS011;10384;51.940;8.432;2022-10-16T07:35:18;2.23;;;1.60;;
20449;SDS011;10384;51.940;8.432;2022-10-16T07:37:44;2.63;;;1.30;;
20449;SDS011;10384;51.940;8.432;2022-10-16T07:40:10;4.30;;;1.40;;
20449;SDS011;10384;51.940;8.432;2022-10-16T07:42:36;3.43;;;1.20;;
20449;SDS011;10384;51.940;8.432;2022-10-16T07:45:03;4.07;;;1.60;;
20449;SDS011;10384;51.940;8.432;2022-10-16T07:47:29;1.53;;;1.30;;
20449;SDS011;10384;51.940;8.432;2022-10-16T07:49:55;1.83;;;1.50;;
20449;SDS011;10384;51.940;8.432;2022-10-16T07:52:21;2.57;;;1.87;;
20449;SDS011;10384;51.940;8.432;2022-10-16T07:54:47;1.83;;;1.27;;
20449;SDS011;10384;51.940;8.432;2022-10-16T07:57:13;1.50;;;1.30;;
20449;SDS011;10384;51.940;8.432;2022-10-16T07:59:44;1.70;;;1.43;;
20449;SDS011;10384;51.940;8.432;2022-10-16T08:02:10;2.70;;;1.30;;
20449;SDS011;10384;51.940;8.432;2022-10-16T08:04:37;1.70;;;1.43;;
20449;SDS011;10384;51.940;8.432;2022-10-16T08:07:02;1.50;;;1.20;;
20449;SDS011;10384;51.940;8.432;2022-10-16T08:09:28;3.23;;;1.40;;
20449;SDS011;10384;51.940;8.432;2022-10-16T08:11:54;4.17;;;1.80;;
20449;SDS011;10384;51.940;8.432;2022-10-16T08:14:20;3.57;;;1.90;;
20449;SDS011;10384;51.940;8.432;2022-10-16T08:16:47;6.00;;;2.43;;
20449;SDS011;10384;51.940;8.432;2022-10-16T08:19:13;4.10;;;1.80;;
20449;SDS011;10384;51.940;8.432;2022-10-16T08:21:40;7.13;;;2.43;;
20449;SDS011;10384;51.940;8.432;2022-10-16T08:24:06;7.30;;;3.20;;
20449;SDS011;10384;51.940;8.432;2022-10-16T08:26:32;7.20;;;2.83;;
20449;SDS011;10384;51.940;8.432;2022-10-16T08:28:58;6.23;;;2.40;;
20449;SDS011;10384;51.940;8.432;2022-10-16T08:31:24;3.43;;;2.10;;
20449;SDS011;10384;51.940;8.432;2022-10-16T08:33:52;2.93;;;2.00;;
20449;SDS011;10384;51.940;8.432;2022-10-16T08:36:18;4.47;;;2.00;;
20449;SDS011;10384;51.940;8.432;2022-10-16T08:38:47;2.27;;;1.50;;
20449;SDS011;10384;51.940;8.432;2022-10-16T08:41:22;1.67;;;1.10;;
20449;SDS011;10384;51.940;8.432;2022-10-16T08:43:55;3.03;;;1.20;;
20449;SDS011;10384;51.940;8.432;2022-10-16T08:48:58;2.37;;;0.90;;
20449;SDS011;10384;51.940;8.432;2022-10-16T08:51:29;5.30;;;1.20;;
20449;SDS011;10384;51.940;8.432;2022-10-16T08:53:57;3.47;;;1.20;;
20449;SDS011;10384;51.940;8.432;2022-10-16T08:56:24;3.47;;;1.30;;
20449;SDS011;10384;51.940;8.432;2022-10-16T08:58:51;1.73;;;1.13;;
20449;SDS011;10384;51.940;8.432;2022-10-16T09:01:19;2.50;;;1.30;;
20449;SDS011;10384;51.940;8.432;2022-10-16T09:03:54;2.40;;;1.27;;
20449;SDS011;10384;51.940;8.432;2022-10-16T09:14:10;1.53;;;0.90;;
20449;SDS011;10384;51.940;8.432;2022-10-16T09:16:42;2.13;;;1.10;;
20449;SDS011;10384;51.940;8.432;2022-10-16T09:19:15;1.60;;;1.10;;
20449;SDS011;10384;51.940;8.432;2022-10-16T09:21:44;2.87;;;1.10;;
20449;SDS011;10384;51.940;8.432;2022-10-16T09:24:14;3.73;;;1.00;;
20449;SDS011;10384;51.940;8.432;2022-10-16T09:26:41;1.63;;;1.20;;
20449;SDS011;10384;51.940;8.432;2022-10-16T09:29:11;1.50;;;1.10;;
20449;SDS011;10384;51.940;8.432;2022-10-16T09:31:38;4.00;;;1.13;;
20449;SDS011;10384;51.940;8.432;2022-10-16T09:34:04;1.10;;;0.77;;
20449;SDS011;10384;51.940;8.432;2022-10-16T09:36:33;1.90;;;0.90;;
20449;SDS011;10384;51.940;8.432;2022-10-16T09:39:02;2.93;;;0.97;;
20449;SDS011;10384;51.940;8.432;2022-10-16T09:41:28;1.80;;;1.13;;
20449;SDS011;10384;51.940;8.432;2022-10-16T09:43:57;1.53;;;0.90;;
20449;SDS011;10384;51.940;8.432;2022-10-16T09:46:26;4.07;;;1.00;;
20449;SDS011;10384;51.940;8.432;2022-10-16T09:49:03;1.87;;;0.90;;
20449;SDS011;10384;51.940;8.432;2022-10-16T09:51:31;3.03;;;0.80;;
20449;SDS011;10384;51.940;8.432;2022-10-16T09:54:17;1.00;;;0.83;;
20449;SDS011;10384;51.940;8.432;2022-10-16T09:56:44;3.27;;;0.70;;
20449;SDS011;10384;51.940;8.432;2022-10-16T09:59:15;1.23;;;0.80;;
20449;SDS011;10384;51.940;8.432;2022-10-16T10:01:48;2.33;;;0.80;;
20449;SDS011;10384;51.940;8.432;2022-10-16T10:04:18;1.63;;;0.80;;
20449;SDS011;10384;51.940;8.432;2022-10-16T10:06:48;2.57;;;0.60;;
20449;SDS011;10384;51.940;8.432;2022-10-16T10:09:19;2.43;;;0.80;;
20449;SDS011;10384;51.940;8.432;2022-10-16T10:11:55;1.90;;;0.70;;
20449;SDS011;10384;51.940;8.432;2022-10-16T10:14:26;0.80;;;0.50;;
20449;SDS011;10384;51.940;8.432;2022-10-16T10:17:02;0.80;;;0.70;;
20449;SDS011;10384;51.940;8.432;2022-10-16T10:19:28;1.80;;;0.70;;
20449;SDS011;10384;51.940;8.432;2022-10-16T10:21:54;2.20;;;0.60;;
20449;SDS011;10384;51.940;8.432;2022-10-16T10:24:20;2.60;;;0.70;;
20449;SDS011;10384;51.940;8.432;2022-10-16T10:27:05;1.57;;;0.83;;
20449;SDS011;10384;51.940;8.432;2022-10-16T10:29:41;2.57;;;1.23;;
20449;SDS011;10384;51.940;8.432;2022-10-16T10:35:07;2.77;;;0.70;;
20449;SDS011;10384;51.940;8.432;2022-10-16T10:40:16;0.90;;;0.70;;
20449;SDS011;10384;51.940;8.432;2022-10-16T10:42:51;2.57;;;0.63;;
20449;SDS011;10384;51.940;8.432;2022-10-16T10:45:26;1.13;;;0.50;;
20449;SDS011;10384;51.940;8.432;2022-10-16T11:01:56;0.90;;;0.60;;
20449;SDS011;10384;51.940;8.432;2022-10-16T11:07:17;1.67;;;0.80;;
20449;SDS011;10384;51.940;8.432;2022-10-16T11:09:53;2.60;;;0.70;;
20449;SDS011;10384;51.940;8.432;2022-10-16T11:14:56;1.17;;;0.80;;
20449;SDS011;10384;51.940;8.432;2022-10-16T11:17:32;1.73;;;1.07;;
20449;SDS011;10384;51.940;8.432;2022-10-16T11:20:11;2.30;;;1.20;;
20449;SDS011;10384;51.940;8.432;2022-10-16T11:22:43;4.30;;;1.00;;
20449;SDS011;10384;51.940;8.432;2022-10-16T11:27:45;1.70;;;0.70;;
20449;SDS011;10384;51.940;8.432;2022-10-16T11:30:23;2.57;;;0.77;;
20449;SDS011;10384;51.940;8.432;2022-10-16T11:32:56;1.67;;;0.67;;
20449;SDS011;10384;51.940;8.432;2022-10-16T11:35:33;3.30;;;1.20;;
20449;SDS011;10384;51.940;8.432;2022-10-16T11:38:02;2.47;;;0.97;;
20449;SDS011;10384;51.940;8.432;2022-10-16T11:40:31;0.83;;;0.80;;
20449;SDS011;10384;51.940;8.432;2022-10-16T11:43:05;0.87;;;0.60;;
20449;SDS011;10384;51.940;8.432;2022-10-16T11:45:42;2.57;;;0.70;;
20449;SDS011;10384;51.940;8.432;2022-10-16T11:50:54;1.00;;;0.80;;
20449;SDS011;10384;51.940;8.432;2022-10-16T11:53:24;0.70;;;0.57;;
20449;SDS011;10384;51.940;8.432;2022-10-16T11:55:53;4.40;;;0.70;;
20449;SDS011;10384;51.940;8.432;2022-10-16T12:03:20;2.53;;;0.80;;
20449;SDS011;10384;51.940;8.432;2022-10-16T12:08:33;0.67;;;0.67;;
20449;SDS011;10384;51.940;8.432;2022-10-16T12:11:35;1.27;;;0.90;;
20449;SDS011;10384;51.940;8.432;2022-10-16T12:14:02;1.10;;;1.00;;
20449;SDS011;10384;51.940;8.432;2022-10-16T12:16:29;2.23;;;0.70;;
20449;SDS011;10384;51.940;8.432;2022-10-16T12:19:15;1.27;;;0.87;;
20449;SDS011;10384;51.940;8.432;2022-10-16T12:21:41;3.40;;;0.80;;
20449;SDS011;10384;51.940;8.432;2022-10-16T12:24:19;1.07;;;0.80;;
20449;SDS011;10384;51.940;8.432;2022-10-16T12:26:46;1.17;;;0.77;;
20449;SDS011;10384;51.940;8.432;2022-10-16T12:31:58;1.77;;;0.80;;
20449;SDS011;10384;51.940;8.432;2022-10-16T12:34:41;1.00;;;0.70;;
20449;SDS011;10384;51.940;8.432;2022-10-16T12:39:40;1.30;;;0.80;;
20449;SDS011;10384;51.940;8.432;2022-10-16T12:44:51;1.30;;;0.87;;
20449;SDS011;10384;51.940;8.432;2022-10-16T12:47:21;1.90;;;0.90;;
20449;SDS011;10384;51.940;8.432;2022-10-16T12:49:48;2.30;;;0.90;;
20449;SDS011;10384;51.940;8.432;2022-10-16T12:52:25;0.80;;;0.80;;
20449;SDS011;10384;51.940;8.432;2022-10-16T12:54:52;1.27;;;1.00;;
20449;SDS011;10384;51.940;8.432;2022-10-16T12:57:26;1.63;;;1.20;;
20449;SDS011;10384;51.940;8.432;2022-10-16T13:05:29;0.90;;;0.77;;
20449;SDS011;10384;51.940;8.432;2022-10-16T13:08:05;0.80;;;0.80;;
20449;SDS011;10384;51.940;8.432;2022-10-16T13:18:28;1.30;;;0.90;;
20449;SDS011;10384;51.940;8.432;2022-10-16T13:25:58;1.07;;;0.97;;
20449;SDS011;10384;51.940;8.432;2022-10-16T13:28:28;0.83;;;0.83;;
20449;SDS011;10384;51.940;8.432;2022-10-16T13:30:55;1.23;;;1.10;;
20449;SDS011;10384;51.940;8.432;2022-10-16T13:35:57;1.77;;;1.00;;
20449;SDS011;10384;51.940;8.432;2022-10-16T13:38:27;2.30;;;1.20;;
20449;SDS011;10384;51.940;8.432;2022-10-16T13:40:57;1.80;;;1.10;;
20449;SDS011;10384;51.940;8.432;2022-10-16T13:43:32;1.87;;;0.97;;
20449;SDS011;10384;51.940;8.432;2022-10-16T13:46:00;2.03;;;0.90;;
20449;SDS011;10384;51.940;8.432;2022-10-16T13:48:27;1.40;;;1.00;;
20449;SDS011;10384;51.940;8.432;2022-10-16T13:51:03;2.23;;;1.20;;
20449;SDS011;10384;51.940;8.432;2022-10-16T13:53:34;2.13;;;1.40;;
20449;SDS011;10384;51.940;8.432;2022-10-16T13:56:01;3.13;;;1.20;;
20449;SDS011;10384;51.940;8.432;2022-10-16T13:58:28;3.10;;;1.17;;
20449;SDS011;10384;51.940;8.432;2022-10-16T14:01:01;2.90;;;1.30;;
20449;SDS011;10384;51.940;8.432;2022-10-16T14:03:27;0.90;;;0.90;;
20449;SDS011;10384;51.940;8.432;2022-10-16T14:06:03;1.07;;;0.97;;
20449;SDS011;10384;51.940;8.432;2022-10-16T14:08:30;1.30;;;1.10;;
20449;SDS011;10384;51.940;8.432;2022-10-16T14:10:59;3.17;;;2.33;;
20449;SDS011;10384;51.940;8.432;2022-10-16T14:13:31;0.93;;;0.93;;
20449;SDS011;10384;51.940;8.432;2022-10-16T14:15:57;2.50;;;0.93;;
20449;SDS011;10384;51.940;8.432;2022-10-16T14:18:25;2.40;;;1.00;;
20449;SDS011;10384;51.940;8.432;2022-10-16T14:20:52;3.23;;;1.60;;
20449;SDS011;10384;51.940;8.432;2022-10-16T14:23:31;2.10;;;0.90;;
20449;SDS011;10384;51.940;8.432;2022-10-16T14:26:05;3.90;;;1.10;;
20449;SDS011;10384;51.940;8.432;2022-10-16T14:28:31;1.37;;;1.00;;
20449;SDS011;10384;51.940;8.432;2022-10-16T14:30:58;2.20;;;1.10;;
20449;SDS011;10384;51.940;8.432;2022-10-16T14:33:31;1.37;;;1.10;;
20449;SDS011;10384;51.940;8.432;2022-10-16T14:38:27;1.37;;;1.17;;
20449;SDS011;10384;51.940;8.432;2022-10-16T14:40:54;2.63;;;1.10;;
20449;SDS011;10384;51.940;8.432;2022-10-16T14:43:31;2.47;;;1.10;;
20449;SDS011;10384;51.940;8.432;2022-10-16T14:45:59;1.63;;;1.07;;
20449;SDS011;10384;51.940;8.432;2022-10-16T14:48:25;2.13;;;1.10;;
20449;SDS011;10384;51.940;8.432;2022-10-16T14:50:51;2.53;;;0.90;;
20449;SDS011;10384;51.940;8.432;2022-10-16T14:53:17;2.77;;;0.90;;
20449;SDS011;10384;51.940;8.432;2022-10-16T14:55:43;2.93;;;0.80;;
20449;SDS011;10384;51.940;8.432;2022-10-16T14:58:16;1.07;;;0.97;;
20449;SDS011;10384;51.940;8.432;2022-10-16T15:00:43;1.17;;;0.90;;
20449;SDS011;10384;51.940;8.432;2022-10-16T15:03:09;1.73;;;0.90;;
20449;SDS011;10384;51.940;8.432;2022-10-16T15:05:35;1.77;;;0.97;;
20449;SDS011;10384;51.940;8.432;2022-10-16T15:08:01;1.13;;;1.00;;
20449;SDS011;10384;51.940;8.432;2022-10-16T15:10:29;1.80;;;1.03;;
20449;SDS011;10384;51.940;8.432;2022-10-16T15:12:55;1.97;;;0.80;;
20449;SDS011;10384;51.940;8.432;2022-10-16T15:17:47;3.30;;;1.10;;
20449;SDS011;10384;51.940;8.432;2022-10-16T15:20:14;2.03;;;1.00;;
20449;SDS011;10384;51.940;8.432;2022-10-16T15:22:39;1.63;;;1.10;;
20449;SDS011;10384;51.940;8.432;2022-10-16T15:25:12;2.83;;;1.10;;
20449;SDS011;10384;51.940;8.432;2022-10-16T15:27:42;1.13;;;1.03;;
20449;SDS011;10384;51.940;8.432;2022-10-16T15:30:09;2.40;;;0.97;;
20449;SDS011;10384;51.940;8.432;2022-10-16T15:32:35;1.40;;;1.07;;
20449;SDS011;10384;51.940;8.432;2022-10-16T15:35:01;1.27;;;0.80;;
20449;SDS011;10384;51.940;8.432;2022-10-16T15:37:27;1.67;;;1.10;;
20449;SDS011;10384;51.940;8.432;2022-10-16T15:39:53;1.10;;;1.00;;
20449;SDS011;10384;51.940;8.432;2022-10-16T15:42:19;1.63;;;1.43;;
20449;SDS011;10384;51.940;8.432;2022-10-16T15:44:45;1.77;;;1.20;;
20449;SDS011;10384;51.940;8.432;2022-10-16T15:47:11;2.00;;;1.20;;
20449;SDS011;10384;51.940;8.432;2022-10-16T15:49:37;1.63;;;1.43;;
20449;SDS011;10384;51.940;8.432;2022-10-16T15:52:04;1.20;;;1.10;;
20449;SDS011;10384;51.940;8.432;2022-10-16T15:54:30;1.40;;;1.30;;
20449;SDS011;10384;51.940;8.432;2022-10-16T15:56:56;2.77;;;1.10;;
20449;SDS011;10384;51.940;8.432;2022-10-16T15:59:22;2.73;;;1.50;;
20449;SDS011;10384;51.940;8.432;2022-10-16T16:01:48;4.50;;;1.27;;
20449;SDS011;10384;51.940;8.432;2022-10-16T16:04:14;2.00;;;1.20;;
20449;SDS011;10384;51.940;8.432;2022-10-16T16:06:41;1.47;;;1.20;;
20449;SDS011;10384;51.940;8.432;2022-10-16T16:09:10;1.30;;;1.13;;
20449;SDS011;10384;51.940;8.432;2022-10-16T16:11:36;2.20;;;1.10;;
20449;SDS011;10384;51.940;8.432;2022-10-16T16:14:03;1.60;;;1.20;;
20449;SDS011;10384;51.940;8.432;2022-10-16T16:16:30;2.87;;;1.40;;
20449;SDS011;10384;51.940;8.432;2022-10-16T16:18:58;2.83;;;2.00;;
20449;SDS011;10384;51.940;8.432;2022-10-16T16:21:24;6.43;;;1.97;;
20449;SDS011;10384;51.940;8.432;2022-10-16T16:23:50;2.63;;;1.90;;
20449;SDS011;10384;51.940;8.432;2022-10-16T16:26:23;2.23;;;1.60;;